createdAt,value
2023-05-22T00:01:57.352Z,73.86
2023-05-22T00:04:31.028Z,74.06
2023-05-22T00:07:04.885Z,74.57
2023-05-22T00:09:39.447Z,74.80
2023-05-22T00:12:12.747Z,75.17
2023-05-22T00:14:46.002Z,75.65
2023-05-22T00:17:19.300Z,76.01
2023-05-22T00:19:54.000Z,76.03
2023-05-22T00:22:28.401Z,76.06
2023-05-22T00:25:03.300Z,76.22
2023-05-22T00:27:36.559Z,76.21
2023-05-22T00:30:11.244Z,76.63
2023-05-22T00:32:44.529Z,76.60
2023-05-22T00:35:17.803Z,76.60
2023-05-22T00:37:51.051Z,76.76
2023-05-22T00:40:26.208Z,77.00
2023-05-22T00:42:59.440Z,77.16
2023-05-22T00:45:33.625Z,77.38
2023-05-22T00:48:09.687Z,77.37
2023-05-22T00:50:43.133Z,77.28
2023-05-22T00:53:16.904Z,77.33
2023-05-22T00:55:52.714Z,77.57
2023-05-22T00:58:28.065Z,77.72
2023-05-22T01:01:01.924Z,78.09
2023-05-22T01:03:35.311Z,78.21
2023-05-22T01:06:08.776Z,78.42
2023-05-22T01:08:42.459Z,78.37
2023-05-22T01:11:24.410Z,77.99
2023-05-22T01:14:08.460Z,77.88
2023-05-22T01:16:52.902Z,77.89
2023-05-22T01:20:01.443Z,77.85
2023-05-22T01:22:58.632Z,77.93
2023-05-22T01:26:03.895Z,78.25
2023-05-22T01:29:04.310Z,79.07
2023-05-22T01:31:42.616Z,79.44
2023-05-22T01:34:20.037Z,79.44
2023-05-22T01:36:55.875Z,79.28
2023-05-22T01:39:30.210Z,79.27
2023-05-22T01:42:03.578Z,79.13
2023-05-22T01:44:36.745Z,79.13
2023-05-22T01:47:11.326Z,78.90
2023-05-22T01:49:45.002Z,79.00
2023-05-22T01:52:30.016Z,79.18
2023-05-22T01:55:13.552Z,79.45
2023-05-22T01:57:55.062Z,79.64
2023-05-22T02:00:30.288Z,79.73
2023-05-22T02:03:09.893Z,79.77
2023-05-22T02:05:46.738Z,79.74
2023-05-22T02:08:22.184Z,79.85
2023-05-22T02:10:57.843Z,80.05
2023-05-22T02:13:31.678Z,79.93
2023-05-22T02:16:06.326Z,79.96
2023-05-22T02:18:41.968Z,80.02
2023-05-22T02:21:15.514Z,79.93
2023-05-22T02:23:48.764Z,80.39
2023-05-22T02:26:21.952Z,80.37
2023-05-22T02:28:56.167Z,80.28
2023-05-22T02:31:29.480Z,80.07
2023-05-22T02:34:05.511Z,80.22
2023-05-22T02:36:39.820Z,80.35
2023-05-22T02:39:13.109Z,80.56
2023-05-22T02:41:48.831Z,80.74
2023-05-22T02:44:22.092Z,80.81
2023-05-22T02:46:55.383Z,81.50
2023-05-22T02:49:30.057Z,81.52
2023-05-22T02:52:06.001Z,81.58
2023-05-22T02:54:39.192Z,81.34
2023-05-22T02:57:12.396Z,81.13
2023-05-22T02:59:45.727Z,81.35
2023-05-22T03:02:20.036Z,81.09
2023-05-22T03:04:59.158Z,81.06
2023-05-22T03:07:32.509Z,81.25
2023-05-22T03:10:06.976Z,81.37
2023-05-22T03:12:42.401Z,81.59
2023-05-22T03:15:18.369Z,81.82
2023-05-22T03:17:51.658Z,81.80
2023-05-22T03:20:26.503Z,81.72
2023-05-22T03:22:59.679Z,81.39
2023-05-22T03:25:32.876Z,81.34
2023-05-22T03:28:06.358Z,81.37
2023-05-22T03:30:43.628Z,81.37
2023-05-22T03:33:27.692Z,81.23
2023-05-22T03:36:03.628Z,81.31
2023-05-22T03:38:36.815Z,81.51
2023-05-22T03:41:10.024Z,81.32
2023-05-22T03:43:44.997Z,81.41
2023-05-22T03:46:18.997Z,81.51
2023-05-22T03:48:52.445Z,81.34
2023-05-22T03:51:27.018Z,81.22
2023-05-22T03:54:00.280Z,80.88
2023-05-22T03:56:33.432Z,80.99
2023-05-22T03:59:06.562Z,80.99
2023-05-22T04:01:40.103Z,81.00
2023-05-22T04:04:13.588Z,80.78
2023-05-22T04:06:48.287Z,80.66
2023-05-22T04:09:21.530Z,80.72
2023-05-22T04:11:56.153Z,80.62
2023-05-22T04:14:29.544Z,80.66
2023-05-22T04:17:02.768Z,81.24
2023-05-22T04:19:36.365Z,81.54
2023-05-22T04:22:10.913Z,81.72
2023-05-22T04:24:44.121Z,81.65
2023-05-22T04:27:17.501Z,81.64
2023-05-22T04:29:51.443Z,81.20
2023-05-22T04:32:24.636Z,81.23
2023-05-22T04:35:00.569Z,81.23
2023-05-22T04:37:35.837Z,81.22
2023-05-22T04:40:10.181Z,81.51
2023-05-22T04:42:44.686Z,81.83
2023-05-22T04:45:19.425Z,81.93
2023-05-22T04:47:53.608Z,82.58
2023-05-22T04:50:27.203Z,82.71
2023-05-22T04:53:04.294Z,82.64
2023-05-22T04:55:37.628Z,82.31
2023-05-22T04:58:10.820Z,82.45
2023-05-22T05:00:44.557Z,82.08
2023-05-22T05:03:18.285Z,82.36
2023-05-22T05:05:51.556Z,81.84
2023-05-22T05:08:26.219Z,81.54
2023-05-22T05:10:59.883Z,81.32
2023-05-22T05:13:33.100Z,81.94
2023-05-22T05:16:06.849Z,82.25
2023-05-22T05:18:40.068Z,81.91
2023-05-22T05:21:13.187Z,81.82
2023-05-22T05:23:47.805Z,81.47
2023-05-22T05:26:21.750Z,80.64
2023-05-22T05:28:56.724Z,80.44
2023-05-22T05:31:34.149Z,81.06
2023-05-22T05:34:27.668Z,81.47
2023-05-22T05:37:24.595Z,81.38
2023-05-22T05:40:00.308Z,81.62
2023-05-22T05:42:33.593Z,81.82
2023-05-22T05:45:09.859Z,81.97
2023-05-22T05:47:43.508Z,82.01
2023-05-22T05:50:17.274Z,82.35
2023-05-22T05:52:50.565Z,81.66
2023-05-22T05:55:26.938Z,81.24
2023-05-22T05:58:01.181Z,81.15
2023-05-22T06:00:45.451Z,81.26
2023-05-22T06:03:18.983Z,81.47
2023-05-22T06:06:07.387Z,81.42
2023-05-22T06:09:16.406Z,81.64
2023-05-22T06:12:12.801Z,81.99
2023-05-22T06:14:49.384Z,82.14
2023-05-22T06:17:22.855Z,82.30
2023-05-22T06:19:56.564Z,82.51
2023-05-22T06:22:30.547Z,82.41
2023-05-22T06:25:05.403Z,81.82
2023-05-22T06:27:41.642Z,81.79
2023-05-22T06:30:18.451Z,82.53
2023-05-22T06:32:58.961Z,82.97
2023-05-22T06:35:32.837Z,82.89
2023-05-22T06:38:06.027Z,82.05
2023-05-22T06:40:40.960Z,81.72
2023-05-22T06:43:21.497Z,81.79
2023-05-22T06:46:05.603Z,82.09
2023-05-22T06:48:54.360Z,81.86
2023-05-22T06:51:32.720Z,81.91
2023-05-22T06:54:14.100Z,81.49
2023-05-22T06:56:50.850Z,81.42
2023-05-22T06:59:26.071Z,81.79
2023-05-22T07:02:11.328Z,81.10
2023-05-22T07:05:02.968Z,80.46
2023-05-22T07:07:49.582Z,81.71
2023-05-22T07:10:25.091Z,81.67
2023-05-22T07:12:58.870Z,81.79
2023-05-22T07:15:33.480Z,81.73
2023-05-22T07:18:09.752Z,81.22
2023-05-22T07:20:46.624Z,81.12
2023-05-22T07:23:26.196Z,80.85
2023-05-22T07:25:59.724Z,81.06
2023-05-22T07:28:38.910Z,81.08
2023-05-22T07:31:20.176Z,80.47
2023-05-22T07:33:54.756Z,80.74
2023-05-22T07:36:27.967Z,81.52
2023-05-22T07:39:01.298Z,81.99
2023-05-22T07:41:34.632Z,81.87
2023-05-22T07:44:08.294Z,82.05
2023-05-22T07:46:45.615Z,81.78
2023-05-22T07:49:24.325Z,81.92
2023-05-22T07:51:57.780Z,81.36
2023-05-22T07:54:32.257Z,81.43
2023-05-22T07:57:05.647Z,81.48
2023-05-22T07:59:44.086Z,81.17
2023-05-22T08:02:18.797Z,81.58
2023-05-22T08:04:52.015Z,82.30
2023-05-22T08:07:25.267Z,82.09
2023-05-22T08:09:58.455Z,81.43
2023-05-22T08:12:31.630Z,81.79
2023-05-22T08:15:05.461Z,81.45
2023-05-22T08:17:40.326Z,80.99
2023-05-22T08:20:14.122Z,79.88
2023-05-22T08:22:47.388Z,80.50
2023-05-22T08:25:20.646Z,80.21
2023-05-22T08:27:53.854Z,80.30
2023-05-22T08:30:27.075Z,80.94
2023-05-22T08:33:01.707Z,80.70
2023-05-22T08:35:35.029Z,79.94
2023-05-22T08:38:08.216Z,79.96
2023-05-22T08:40:49.575Z,79.52
2023-05-22T08:43:22.945Z,79.27
2023-05-22T08:46:02.241Z,80.29
2023-05-22T08:48:37.328Z,80.14
2023-05-22T08:51:16.293Z,80.37
2023-05-22T08:53:54.849Z,80.93
2023-05-22T08:56:29.718Z,80.69
2023-05-22T08:59:04.800Z,80.14
2023-05-22T09:01:38.725Z,79.80
2023-05-22T09:04:14.507Z,79.81
2023-05-22T09:06:48.761Z,80.00
2023-05-22T09:09:22.028Z,79.24
2023-05-22T09:11:56.361Z,79.44
2023-05-22T09:14:31.288Z,78.97
2023-05-22T09:17:04.507Z,79.44
2023-05-22T09:19:40.290Z,78.90
2023-05-22T09:22:14.486Z,79.09
2023-05-22T09:24:47.998Z,78.54
2023-05-22T09:27:25.108Z,77.79
2023-05-22T09:29:58.916Z,78.29
2023-05-22T09:32:32.631Z,78.48
2023-05-22T09:35:08.162Z,77.68
2023-05-22T09:37:42.468Z,77.71
2023-05-22T09:40:15.659Z,76.95
2023-05-22T09:42:48.884Z,76.07
2023-05-22T09:45:24.163Z,76.31
2023-05-22T09:47:57.960Z,75.84
2023-05-22T09:50:32.852Z,75.43
2023-05-22T09:53:06.840Z,75.41
2023-05-22T09:55:41.148Z,74.87
2023-05-22T09:58:17.279Z,74.77
2023-05-22T10:00:52.089Z,75.59
2023-05-22T10:03:27.586Z,76.35
2023-05-22T10:06:03.980Z,76.32
2023-05-22T10:08:44.430Z,76.20
2023-05-22T10:11:18.661Z,76.30
2023-05-22T10:13:52.940Z,75.39
2023-05-22T10:16:27.710Z,75.45
2023-05-22T10:19:02.419Z,75.17
2023-05-22T10:21:37.952Z,74.34
2023-05-22T10:24:11.464Z,74.10
2023-05-22T10:26:45.820Z,74.55
2023-05-22T10:29:26.622Z,75.77
2023-05-22T10:32:07.755Z,75.86
2023-05-22T10:34:58.646Z,75.54
2023-05-22T10:37:49.903Z,75.83
2023-05-22T10:40:30.458Z,75.54
2023-05-22T10:43:05.107Z,75.19
2023-05-22T10:45:38.301Z,74.27
2023-05-22T10:48:13.252Z,73.92
2023-05-22T10:50:53.648Z,74.18
2023-05-22T10:53:32.381Z,74.28
2023-05-22T10:56:13.592Z,73.90
2023-05-22T10:58:57.726Z,74.04
2023-05-22T11:01:31.009Z,73.67
2023-05-22T11:04:12.938Z,74.39
2023-05-22T11:06:50.850Z,75.06
2023-05-22T11:09:31.714Z,75.05
2023-05-22T11:12:17.506Z,75.27
2023-05-22T11:14:53.058Z,75.03
2023-05-22T11:17:29.167Z,74.37
2023-05-22T11:20:05.982Z,74.39
2023-05-22T11:22:43.173Z,73.97
2023-05-22T11:25:20.188Z,75.30
2023-05-22T11:27:56.169Z,75.50
2023-05-22T11:30:30.920Z,74.28
2023-05-22T11:33:04.681Z,73.61
2023-05-22T11:35:40.917Z,74.05
2023-05-22T11:38:15.880Z,73.81
2023-05-22T11:40:53.252Z,74.24
2023-05-22T11:43:33.146Z,73.97
2023-05-22T11:46:11.582Z,73.91
2023-05-22T11:48:44.792Z,72.70
2023-05-22T11:51:21.331Z,72.25
2023-05-22T11:53:55.173Z,72.64
2023-05-22T11:56:29.773Z,71.39
2023-05-22T11:59:04.022Z,71.15
2023-05-22T12:01:37.266Z,71.48
2023-05-22T12:04:10.507Z,71.71
2023-05-22T12:06:43.928Z,72.43
2023-05-22T12:09:17.111Z,72.59
2023-05-22T12:11:51.921Z,71.70
2023-05-22T12:14:27.664Z,71.73
2023-05-22T12:17:01.330Z,71.10
2023-05-22T12:19:34.541Z,70.03
2023-05-22T12:22:08.210Z,69.94
2023-05-22T12:24:44.101Z,69.22
2023-05-22T12:27:18.655Z,68.04
2023-05-22T12:29:52.913Z,69.41
2023-05-22T12:32:27.097Z,69.00
2023-05-22T12:35:00.711Z,68.82
2023-05-22T12:37:35.664Z,68.01
2023-05-22T12:40:10.578Z,67.86
2023-05-22T12:42:45.850Z,67.37
2023-05-22T12:45:19.219Z,67.27
2023-05-22T12:47:52.409Z,67.98
2023-05-22T12:50:25.941Z,67.21
2023-05-22T12:52:59.225Z,67.09
2023-05-22T12:55:32.437Z,66.82
2023-05-22T12:58:07.222Z,67.58
2023-05-22T13:00:40.708Z,66.42
2023-05-22T13:03:14.250Z,66.00
2023-05-22T13:05:47.349Z,66.79
2023-05-22T13:08:20.500Z,66.81
2023-05-22T13:10:53.677Z,65.69
2023-05-22T13:13:28.177Z,65.81
2023-05-22T13:16:01.318Z,67.14
2023-05-22T13:18:34.487Z,67.33
2023-05-22T13:21:07.669Z,65.42
2023-05-22T13:23:41.066Z,65.50
2023-05-22T13:26:14.197Z,65.85
2023-05-22T13:28:48.752Z,64.92
2023-05-22T13:31:22.025Z,65.11
2023-05-22T13:33:55.269Z,65.66
2023-05-22T13:36:28.492Z,66.61
2023-05-22T13:39:01.738Z,64.68
2023-05-22T13:41:35.101Z,64.84
2023-05-22T13:44:09.685Z,65.66
2023-05-22T13:46:42.919Z,65.21
2023-05-22T13:49:16.208Z,65.20
2023-05-22T13:51:49.421Z,65.39
2023-05-22T13:54:22.551Z,64.28
2023-05-22T13:56:57.653Z,63.12
2023-05-22T13:59:32.333Z,64.20
2023-05-22T14:02:06.054Z,64.17
2023-05-22T14:04:39.250Z,65.57
2023-05-22T14:07:12.819Z,64.23
2023-05-22T14:09:46.148Z,63.32
2023-05-22T14:12:19.324Z,63.80
2023-05-22T14:14:53.960Z,63.12
2023-05-22T14:17:27.153Z,62.68
2023-05-22T14:20:00.542Z,60.90
2023-05-22T14:22:41.418Z,59.06
2023-05-22T14:25:21.695Z,60.18
2023-05-22T14:27:54.938Z,60.78
2023-05-22T14:30:29.542Z,62.35
2023-05-22T14:33:02.761Z,62.65
2023-05-22T14:35:36.222Z,62.26
2023-05-22T14:38:09.395Z,63.36
2023-05-22T14:40:42.611Z,63.56
2023-05-22T14:43:15.804Z,62.68
2023-05-22T14:45:50.513Z,62.60
2023-05-22T14:48:26.611Z,61.58
2023-05-22T14:51:00.066Z,61.45
2023-05-22T14:53:33.284Z,61.92
2023-05-22T14:56:06.765Z,62.30
2023-05-22T14:58:39.953Z,61.64
2023-05-22T15:01:14.536Z,60.26
2023-05-22T15:03:48.484Z,59.68
2023-05-22T15:06:22.085Z,60.12
2023-05-22T15:08:55.251Z,60.27
2023-05-22T15:11:28.431Z,60.97
2023-05-22T15:14:01.595Z,60.40
2023-05-22T15:16:36.187Z,60.85
2023-05-22T15:19:10.311Z,62.77
2023-05-22T15:21:43.534Z,63.51
2023-05-22T15:24:16.780Z,63.67
2023-05-22T15:26:49.927Z,62.46
2023-05-22T15:29:23.185Z,62.50
2023-05-22T15:31:57.801Z,62.41
2023-05-22T15:34:31.357Z,61.15
2023-05-22T15:37:04.603Z,60.36
2023-05-22T15:39:37.748Z,62.34
2023-05-22T15:42:11.054Z,62.63
2023-05-22T15:44:44.277Z,61.29
2023-05-22T15:47:18.803Z,62.43
2023-05-22T15:49:51.959Z,63.30
2023-05-22T15:52:25.310Z,63.76
2023-05-22T15:54:58.892Z,64.27
2023-05-22T15:57:32.445Z,63.36
2023-05-22T16:00:06.844Z,63.58
2023-05-22T16:02:41.421Z,63.38
2023-05-22T16:05:14.608Z,63.23
2023-05-22T16:07:47.818Z,63.81
2023-05-22T16:10:21.633Z,63.98
2023-05-22T16:12:54.797Z,65.02
2023-05-22T16:15:27.962Z,64.87
2023-05-22T16:18:02.588Z,64.45
2023-05-22T16:20:36.885Z,64.22
2023-05-22T16:23:10.137Z,63.27
2023-05-22T16:25:43.356Z,63.69
2023-05-22T16:28:17.213Z,63.27
2023-05-22T16:30:50.472Z,63.89
2023-05-22T16:33:25.077Z,63.71
2023-05-22T16:35:58.348Z,64.57
2023-05-22T16:38:31.539Z,65.58
2023-05-22T16:41:04.809Z,65.56
2023-05-22T16:43:38.378Z,65.31
2023-05-22T16:46:11.649Z,64.52
2023-05-22T16:48:46.332Z,65.59
2023-05-22T16:51:19.766Z,65.27
2023-05-22T16:53:52.947Z,64.90
2023-05-22T16:56:26.393Z,65.11
2023-05-22T16:58:59.612Z,65.20
2023-05-22T17:01:32.936Z,65.10
2023-05-22T17:04:07.588Z,65.39
2023-05-22T17:06:41.327Z,65.71
2023-05-22T17:09:16.916Z,66.22
2023-05-22T17:11:50.131Z,66.26
2023-05-22T17:14:23.532Z,66.78
2023-05-22T17:16:57.054Z,66.78
2023-05-22T17:19:32.404Z,66.96
2023-05-22T17:22:06.128Z,67.12
2023-05-22T17:24:39.386Z,67.16
2023-05-22T17:29:45.895Z,66.64
2023-05-22T17:32:19.158Z,66.57
2023-05-22T17:34:53.836Z,65.58
2023-05-22T17:37:27.054Z,65.70
2023-05-22T17:40:00.416Z,65.08
2023-05-22T17:42:33.721Z,65.37
2023-05-22T17:45:08.175Z,65.63
2023-05-22T17:47:41.432Z,66.38
2023-05-22T17:50:16.174Z,66.18
2023-05-22T17:52:49.586Z,66.03
2023-05-22T17:55:22.862Z,66.02
2023-05-22T17:57:56.234Z,66.42
2023-05-22T18:00:29.487Z,66.28
2023-05-22T18:03:05.128Z,66.52
2023-05-22T18:05:40.181Z,66.13
2023-05-22T18:08:13.354Z,66.47
2023-05-22T18:10:46.613Z,66.88
2023-05-22T18:13:20.282Z,66.68
2023-05-22T18:15:54.368Z,67.29
2023-05-22T18:18:27.831Z,67.49
2023-05-22T18:21:03.338Z,67.29
2023-05-22T18:23:36.577Z,67.54
2023-05-22T18:26:10.150Z,67.62
2023-05-22T18:28:43.300Z,67.80
2023-05-22T18:31:16.725Z,67.67
2023-05-22T18:33:49.889Z,67.93
2023-05-22T18:36:24.558Z,68.08
2023-05-22T18:38:57.759Z,68.02
2023-05-22T18:41:31.065Z,68.00
2023-05-22T18:44:04.676Z,68.24
2023-05-22T18:46:37.957Z,68.46
2023-05-22T18:49:11.188Z,68.57
2023-05-22T18:51:45.856Z,68.79
2023-05-22T18:54:19.160Z,69.17
2023-05-22T18:56:52.896Z,69.56
2023-05-22T18:59:28.494Z,69.52
2023-05-22T19:02:01.729Z,69.67
2023-05-22T19:04:34.903Z,69.82
2023-05-22T19:07:09.530Z,70.25
2023-05-22T19:09:44.960Z,70.41
2023-05-22T19:12:18.252Z,70.48
2023-05-22T19:14:52.566Z,70.44
2023-05-22T19:17:26.127Z,70.66
2023-05-22T19:19:59.363Z,70.84
2023-05-22T19:22:34.016Z,71.02
2023-05-22T19:25:07.915Z,71.37
2023-05-22T19:27:41.080Z,71.47
2023-05-22T19:30:16.521Z,71.40
2023-05-22T19:32:50.914Z,71.53
2023-05-22T19:35:24.296Z,71.76
2023-05-22T19:37:58.888Z,72.17
2023-05-22T19:40:32.025Z,72.12
2023-05-22T19:43:05.294Z,72.04
2023-05-22T19:45:41.043Z,72.01
2023-05-22T19:48:14.957Z,72.13
2023-05-22T19:50:48.124Z,72.50
2023-05-22T19:53:22.696Z,72.87
2023-05-22T19:56:03.032Z,72.97
2023-05-22T19:58:36.212Z,73.00
2023-05-22T20:01:09.358Z,73.08
2023-05-22T20:03:42.648Z,73.11
2023-05-22T20:06:16.153Z,73.14
2023-05-22T20:08:50.739Z,73.45
2023-05-22T20:11:23.931Z,73.42
2023-05-22T20:13:57.175Z,73.78
2023-05-22T20:16:30.454Z,73.93
2023-05-22T20:19:04.020Z,73.98
2023-05-22T20:21:37.322Z,74.04
2023-05-22T20:24:18.966Z,74.24
2023-05-22T20:26:52.871Z,74.40
2023-05-22T20:29:26.038Z,74.41
2023-05-22T20:31:59.369Z,74.74
2023-05-22T20:34:32.578Z,75.13
2023-05-22T20:37:08.900Z,75.60
2023-05-22T20:39:44.322Z,75.41
2023-05-22T20:42:18.278Z,75.41
2023-05-22T20:44:53.868Z,75.68
2023-05-22T20:47:27.161Z,76.13
2023-05-22T20:50:00.326Z,76.56
2023-05-22T20:52:33.755Z,76.84
2023-05-22T20:55:09.252Z,77.12
2023-05-22T20:57:42.445Z,76.97
2023-05-22T21:00:15.840Z,76.92
2023-05-22T21:02:49.025Z,76.79
2023-05-22T21:05:22.397Z,76.92
2023-05-22T21:07:55.506Z,76.86
2023-05-22T21:10:30.034Z,76.88
2023-05-22T21:13:03.118Z,76.92
2023-05-22T21:15:36.586Z,76.94
2023-05-22T21:18:09.857Z,77.08
2023-05-22T21:20:43.119Z,77.20
2023-05-22T21:23:16.318Z,77.34
2023-05-22T21:25:50.906Z,77.61
2023-05-22T21:28:24.095Z,77.63
2023-05-22T21:30:57.356Z,77.76
2023-05-22T21:33:30.487Z,78.01
2023-05-22T21:36:03.741Z,78.35
2023-05-22T21:38:36.865Z,78.24
2023-05-22T21:41:11.779Z,78.55
2023-05-22T21:43:45.623Z,78.37
2023-05-22T21:46:18.854Z,78.73
2023-05-22T21:48:53.621Z,78.87
2023-05-22T21:51:26.881Z,78.90
2023-05-22T21:54:00.148Z,79.34
2023-05-22T21:56:34.744Z,79.39
2023-05-22T21:59:08.017Z,79.29
2023-05-22T22:01:41.356Z,79.19
2023-05-22T22:04:14.540Z,79.01
2023-05-22T22:06:47.766Z,79.11
2023-05-22T22:09:20.919Z,79.48
2023-05-22T22:11:55.634Z,79.54
2023-05-22T22:14:28.812Z,79.70
2023-05-22T22:17:02.003Z,79.71
2023-05-22T22:19:36.079Z,79.59
2023-05-22T22:22:09.697Z,79.60
2023-05-22T22:24:42.947Z,79.80
2023-05-22T22:27:17.665Z,79.71
2023-05-22T22:29:50.834Z,79.82
2023-05-22T22:32:24.036Z,79.87
2023-05-22T22:34:57.217Z,79.88
2023-05-22T22:37:31.169Z,80.14
2023-05-22T22:40:05.290Z,80.47
2023-05-22T22:42:39.876Z,80.53
2023-05-22T22:45:14.705Z,81.05
2023-05-22T22:47:48.299Z,81.05
2023-05-22T22:50:21.518Z,80.99
2023-05-22T22:52:54.806Z,81.17
2023-05-22T22:55:28.104Z,81.15
2023-05-22T22:58:03.023Z,81.50
2023-05-22T23:00:38.568Z,81.65
2023-05-22T23:03:11.741Z,81.94
2023-05-22T23:05:45.306Z,81.77
2023-05-22T23:08:18.680Z,81.99
2023-05-22T23:10:51.823Z,82.55
2023-05-22T23:13:26.402Z,82.80
2023-05-22T23:15:59.614Z,83.59
2023-05-22T23:18:32.800Z,83.46
2023-05-22T23:21:06.560Z,83.51
2023-05-22T23:23:39.731Z,83.34
2023-05-22T23:26:12.871Z,82.87
2023-05-22T23:28:47.436Z,82.27
2023-05-22T23:31:26.087Z,81.88
2023-05-22T23:34:00.036Z,81.84
2023-05-22T23:36:33.666Z,81.93
2023-05-22T23:39:06.892Z,81.75
2023-05-22T23:41:40.521Z,81.34
2023-05-22T23:44:15.134Z,81.34
2023-05-22T23:46:48.744Z,81.25
2023-05-22T23:49:22.277Z,80.92
2023-05-22T23:51:55.476Z,80.47
2023-05-22T23:54:28.799Z,79.98
2023-05-22T23:57:01.934Z,79.75
2023-05-22T23:59:36.458Z,79.24
